sensor_id;sensor_type;location;lat;lon;timestamp;pressure;altitude;pressure_sealevel;temperature;humidity
51313;BME280;37397;53.226;10.400;2023-05-08T00:01:16;102071.91;;;13.34;54.81
51313;BME280;37397;53.226;10.400;2023-05-08T00:03:43;102081.66;;;13.37;54.78
51313;BME280;37397;53.226;10.400;2023-05-08T00:06:09;102078.56;;;13.31;54.61
51313;BME280;37397;53.226;10.400;2023-05-08T00:08:36;102087.53;;;13.33;54.70
51313;BME280;37397;53.226;10.400;2023-05-08T00:11:02;102073.75;;;13.28;54.84
51313;BME280;37397;53.226;10.400;2023-05-08T00:13:30;102077.91;;;13.27;54.84
51313;BME280;37397;53.226;10.400;2023-05-08T00:15:56;102076.44;;;13.22;54.72
51313;BME280;37397;53.226;10.400;2023-05-08T00:18:23;102083.75;;;13.23;54.65
51313;BME280;37397;53.226;10.400;2023-05-08T00:20:49;102076.13;;;13.20;54.79
51313;BME280;37397;53.226;10.400;2023-05-08T00:23:16;102073.06;;;13.14;54.75
51313;BME280;37397;53.226;10.400;2023-05-08T00:25:42;102067.78;;;13.13;54.69
51313;BME280;37397;53.226;10.400;2023-05-08T00:28:09;102064.13;;;13.12;54.72
51313;BME280;37397;53.226;10.400;2023-05-08T00:30:36;102057.72;;;13.08;54.59
51313;BME280;37397;53.226;10.400;2023-05-08T00:33:03;102062.34;;;13.06;54.75
51313;BME280;37397;53.226;10.400;2023-05-08T00:35:29;102054.53;;;13.06;54.43
51313;BME280;37397;53.226;10.400;2023-05-08T00:37:56;102056.72;;;13.02;54.45
51313;BME280;37397;53.226;10.400;2023-05-08T00:40:23;102058.47;;;13.00;54.86
51313;BME280;37397;53.226;10.400;2023-05-08T00:42:49;102070.75;;;13.00;54.65
51313;BME280;37397;53.226;10.400;2023-05-08T00:45:16;102062.59;;;12.99;54.69
51313;BME280;37397;53.226;10.400;2023-05-08T00:47:43;102059.56;;;12.93;54.66
51313;BME280;37397;53.226;10.400;2023-05-08T00:50:09;102065.28;;;12.93;54.64
51313;BME280;37397;53.226;10.400;2023-05-08T00:52:37;102062.91;;;12.91;54.68
51313;BME280;37397;53.226;10.400;2023-05-08T00:55:04;102076.06;;;12.89;54.66
51313;BME280;37397;53.226;10.400;2023-05-08T00:57:32;102068.75;;;12.88;54.61
51313;BME280;37397;53.226;10.400;2023-05-08T01:00:03;102065.56;;;12.86;54.61
51313;BME280;37397;53.226;10.400;2023-05-08T01:02:32;102066.84;;;12.85;54.82
51313;BME280;37397;53.226;10.400;2023-05-08T01:04:59;102067.78;;;12.82;54.81
51313;BME280;37397;53.226;10.400;2023-05-08T01:07:26;102067.78;;;12.82;55.06
51313;BME280;37397;53.226;10.400;2023-05-08T01:09:53;102062.63;;;12.76;54.82
51313;BME280;37397;53.226;10.400;2023-05-08T01:12:25;102067.56;;;12.76;54.91
51313;BME280;37397;53.226;10.400;2023-05-08T01:15:03;102069.56;;;12.66;54.66
51313;BME280;37397;53.226;10.400;2023-05-08T01:20:47;102075.88;;;12.61;54.89
51313;BME280;37397;53.226;10.400;2023-05-08T01:23:52;102076.34;;;12.59;54.76
51313;BME280;37397;53.226;10.400;2023-05-08T01:26:46;102083.78;;;12.57;54.70
51313;BME280;37397;53.226;10.400;2023-05-08T01:32:04;102071.69;;;12.53;55.01
51313;BME280;37397;53.226;10.400;2023-05-08T01:34:32;102075.81;;;12.52;55.00
51313;BME280;37397;53.226;10.400;2023-05-08T01:37:03;102075.47;;;12.50;54.81
51313;BME280;37397;53.226;10.400;2023-05-08T01:39:50;102083.38;;;12.46;55.10
51313;BME280;37397;53.226;10.400;2023-05-08T01:42:33;102078.59;;;12.43;54.83
51313;BME280;37397;53.226;10.400;2023-05-08T01:45:08;102073.91;;;12.36;54.92
51313;BME280;37397;53.226;10.400;2023-05-08T01:47:36;102098.28;;;12.40;54.97
51313;BME280;37397;53.226;10.400;2023-05-08T01:50:07;102089.84;;;12.37;55.03
51313;BME280;37397;53.226;10.400;2023-05-08T01:52:43;102089.84;;;12.37;55.02
51313;BME280;37397;53.226;10.400;2023-05-08T01:55:15;102078.16;;;12.31;55.24
51313;BME280;37397;53.226;10.400;2023-05-08T01:57:46;102085.50;;;12.32;54.93
51313;BME280;37397;53.226;10.400;2023-05-08T02:00:17;102074.19;;;12.29;55.11
51313;BME280;37397;53.226;10.400;2023-05-08T02:02:46;102074.66;;;12.27;55.17
51313;BME280;37397;53.226;10.400;2023-05-08T02:05:13;102081.63;;;12.26;55.04
51313;BME280;37397;53.226;10.400;2023-05-08T02:07:43;102074.28;;;12.25;54.99
51313;BME280;37397;53.226;10.400;2023-05-08T02:10:11;102081.75;;;12.22;54.81
51313;BME280;37397;53.226;10.400;2023-05-08T02:12:39;102074.56;;;12.18;54.96
51313;BME280;37397;53.226;10.400;2023-05-08T02:15:08;102073.88;;;12.14;55.11
51313;BME280;37397;53.226;10.400;2023-05-08T02:17:36;102085.31;;;12.14;54.81
51313;BME280;37397;53.226;10.400;2023-05-08T02:20:05;102079.25;;;12.12;55.04
51313;BME280;37397;53.226;10.400;2023-05-08T02:22:33;102082.13;;;12.12;55.05
51313;BME280;37397;53.226;10.400;2023-05-08T02:25:00;102079.72;;;12.10;55.13
51313;BME280;37397;53.226;10.400;2023-05-08T02:27:28;102089.59;;;12.09;55.19
51313;BME280;37397;53.226;10.400;2023-05-08T02:29:56;102079.84;;;12.07;54.91
51313;BME280;37397;53.226;10.400;2023-05-08T02:32:24;102076.66;;;12.04;55.23
51313;BME280;37397;53.226;10.400;2023-05-08T02:34:53;102079.63;;;12.01;55.16
51313;BME280;37397;53.226;10.400;2023-05-08T02:37:30;102072.78;;;11.98;55.13
51313;BME280;37397;53.226;10.400;2023-05-08T02:39:57;102073.22;;;11.97;55.25
51313;BME280;37397;53.226;10.400;2023-05-08T02:42:24;102071.63;;;11.96;55.30
51313;BME280;37397;53.226;10.400;2023-05-08T02:44:51;102070.50;;;11.93;55.33
51313;BME280;37397;53.226;10.400;2023-05-08T02:47:25;102054.34;;;11.86;55.18
51313;BME280;37397;53.226;10.400;2023-05-08T02:53:01;102057.66;;;11.85;55.16
51313;BME280;37397;53.226;10.400;2023-05-08T02:55:39;102058.47;;;11.85;55.12
51313;BME280;37397;53.226;10.400;2023-05-08T02:58:18;102056.97;;;11.81;55.30
51313;BME280;37397;53.226;10.400;2023-05-08T03:00:52;102060.28;;;11.79;55.30
51313;BME280;37397;53.226;10.400;2023-05-08T03:03:23;102057.09;;;11.77;55.60
51313;BME280;37397;53.226;10.400;2023-05-08T03:05:54;102050.69;;;11.73;55.44
51313;BME280;37397;53.226;10.400;2023-05-08T03:08:31;102061.34;;;11.73;55.56
51313;BME280;37397;53.226;10.400;2023-05-08T03:11:05;102055.28;;;11.71;55.39
51313;BME280;37397;53.226;10.400;2023-05-08T03:13:34;102047.63;;;11.67;55.45
51313;BME280;37397;53.226;10.400;2023-05-08T03:16:03;102045.34;;;11.62;55.46
51313;BME280;37397;53.226;10.400;2023-05-08T03:18:40;102050.25;;;11.62;55.29
51313;BME280;37397;53.226;10.400;2023-05-08T03:21:09;102061.81;;;11.58;55.60
51313;BME280;37397;53.226;10.400;2023-05-08T03:23:39;102065.00;;;11.60;55.66
51313;BME280;37397;53.226;10.400;2023-05-08T03:26:06;102060.31;;;11.54;55.54
51313;BME280;37397;53.226;10.400;2023-05-08T03:28:34;102052.19;;;11.52;55.65
51313;BME280;37397;53.226;10.400;2023-05-08T03:31:03;102052.19;;;11.52;55.49
51313;BME280;37397;53.226;10.400;2023-05-08T03:33:31;102056.66;;;11.53;55.64
51313;BME280;37397;53.226;10.400;2023-05-08T03:35:58;102054.72;;;11.50;55.74
51313;BME280;37397;53.226;10.400;2023-05-08T03:38:25;102058.03;;;11.48;55.77
51313;BME280;37397;53.226;10.400;2023-05-08T03:40:52;102050.03;;;11.43;55.69
51313;BME280;37397;53.226;10.400;2023-05-08T03:43:19;102053.22;;;11.45;55.71
51313;BME280;37397;53.226;10.400;2023-05-08T03:45:46;102053.69;;;11.44;55.73
51313;BME280;37397;53.226;10.400;2023-05-08T03:48:13;102054.59;;;11.41;55.77
51313;BME280;37397;53.226;10.400;2023-05-08T03:50:42;102048.53;;;11.39;55.77
51313;BME280;37397;53.226;10.400;2023-05-08T03:53:09;102052.78;;;11.34;55.57
51313;BME280;37397;53.226;10.400;2023-05-08T03:55:36;102051.06;;;11.37;55.69
51313;BME280;37397;53.226;10.400;2023-05-08T03:58:27;102052.06;;;11.30;55.91
51313;BME280;37397;53.226;10.400;2023-05-08T04:01:07;102053.69;;;11.31;55.73
51313;BME280;37397;53.226;10.400;2023-05-08T04:09:49;102060.44;;;11.24;55.73
51313;BME280;37397;53.226;10.400;2023-05-08T04:12:20;102055.28;;;11.19;55.93
51313;BME280;37397;53.226;10.400;2023-05-08T04:14:53;102055.63;;;11.21;55.79
51313;BME280;37397;53.226;10.400;2023-05-08T04:17:33;102056.53;;;11.18;55.63
51313;BME280;37397;53.226;10.400;2023-05-08T04:20:03;102057.31;;;11.19;56.00
51313;BME280;37397;53.226;10.400;2023-05-08T04:22:32;102053.78;;;11.15;55.81
51313;BME280;37397;53.226;10.400;2023-05-08T04:25:02;102066.34;;;11.17;55.93
51313;BME280;37397;53.226;10.400;2023-05-08T04:27:30;102070.47;;;11.16;55.92
51313;BME280;37397;53.226;10.400;2023-05-08T04:29:57;102059.16;;;11.12;56.01
51313;BME280;37397;53.226;10.400;2023-05-08T04:32:24;102073.00;;;11.14;56.08
51313;BME280;37397;53.226;10.400;2023-05-08T04:34:53;102070.69;;;11.09;56.14
51313;BME280;37397;53.226;10.400;2023-05-08T04:37:26;102069.44;;;11.10;56.21
51313;BME280;37397;53.226;10.400;2023-05-08T04:39:55;102068.19;;;11.11;56.04
51313;BME280;37397;53.226;10.400;2023-05-08T04:42:23;102071.13;;;11.07;56.16
51313;BME280;37397;53.226;10.400;2023-05-08T04:44:53;102079.25;;;11.09;56.19
51313;BME280;37397;53.226;10.400;2023-05-08T04:47:21;102070.34;;;11.07;56.24
51313;BME280;37397;53.226;10.400;2023-05-08T04:49:49;102080.53;;;11.08;56.26
51313;BME280;37397;53.226;10.400;2023-05-08T04:52:16;102078.91;;;11.07;56.32
51313;BME280;37397;53.226;10.400;2023-05-08T04:54:43;102069.19;;;11.04;56.27
51313;BME280;37397;53.226;10.400;2023-05-08T04:57:09;102084.63;;;11.07;56.27
51313;BME280;37397;53.226;10.400;2023-05-08T04:59:36;102081.44;;;11.05;56.62
51313;BME280;37397;53.226;10.400;2023-05-08T05:02:04;102083.00;;;11.06;56.50
51313;BME280;37397;53.226;10.400;2023-05-08T05:04:32;102079.81;;;11.04;56.47
51313;BME280;37397;53.226;10.400;2023-05-08T05:06:59;102077.31;;;11.06;56.49
51313;BME280;37397;53.226;10.400;2023-05-08T05:09:26;102081.88;;;11.03;56.56
51313;BME280;37397;53.226;10.400;2023-05-08T05:11:52;102083.00;;;11.06;56.52
51313;BME280;37397;53.226;10.400;2023-05-08T05:14:19;102087.16;;;11.05;56.56
51313;BME280;37397;53.226;10.400;2023-05-08T05:16:46;102083.84;;;11.06;56.77
51313;BME280;37397;53.226;10.400;2023-05-08T05:19:13;102076.50;;;11.05;56.65
51313;BME280;37397;53.226;10.400;2023-05-08T05:21:39;102089.09;;;11.08;56.71
51313;BME280;37397;53.226;10.400;2023-05-08T05:24:06;102078.22;;;11.03;56.89
51313;BME280;37397;53.226;10.400;2023-05-08T05:26:34;102084.97;;;11.09;56.77
51313;BME280;37397;53.226;10.400;2023-05-08T05:29:02;102074.81;;;11.08;56.77
51313;BME280;37397;53.226;10.400;2023-05-08T05:31:29;102085.34;;;11.11;56.68
51313;BME280;37397;53.226;10.400;2023-05-08T05:33:56;102084.88;;;11.12;56.79
51313;BME280;37397;53.226;10.400;2023-05-08T05:36:23;102073.91;;;11.11;56.90
51313;BME280;37397;53.226;10.400;2023-05-08T05:38:50;102085.34;;;11.11;56.89
51313;BME280;37397;53.226;10.400;2023-05-08T05:41:17;102084.44;;;11.14;56.87
51313;BME280;37397;53.226;10.400;2023-05-08T05:43:44;102082.38;;;11.15;56.96
51313;BME280;37397;53.226;10.400;2023-05-08T05:46:11;102081.22;;;11.12;57.06
51313;BME280;37397;53.226;10.400;2023-05-08T05:48:39;102084.44;;;11.14;56.85
51313;BME280;37397;53.226;10.400;2023-05-08T05:51:07;102082.69;;;11.17;56.81
51313;BME280;37397;53.226;10.400;2023-05-08T05:53:35;102076.19;;;11.16;56.79
51313;BME280;37397;53.226;10.400;2023-05-08T05:56:01;102085.44;;;11.20;56.80
51313;BME280;37397;53.226;10.400;2023-05-08T05:58:29;102084.19;;;11.21;56.83
51313;BME280;37397;53.226;10.400;2023-05-08T06:00:57;102081.34;;;11.21;56.87
51313;BME280;37397;53.226;10.400;2023-05-08T06:03:26;102076.41;;;11.22;57.13
51313;BME280;37397;53.226;10.400;2023-05-08T06:05:53;102077.69;;;11.21;56.92
51313;BME280;37397;53.226;10.400;2023-05-08T06:08:21;102085.81;;;11.22;56.82
51313;BME280;37397;53.226;10.400;2023-05-08T06:10:48;102083.28;;;11.24;56.82
51313;BME280;37397;53.226;10.400;2023-05-08T06:13:14;102078.38;;;11.25;56.95
51313;BME280;37397;53.226;10.400;2023-05-08T06:15:42;102089.34;;;11.26;56.92
51313;BME280;37397;53.226;10.400;2023-05-08T06:18:08;102100.31;;;11.28;56.86
51313;BME280;37397;53.226;10.400;2023-05-08T06:20:38;102086.03;;;11.28;56.77
51313;BME280;37397;53.226;10.400;2023-05-08T06:23:05;102087.19;;;11.30;56.88
51313;BME280;37397;53.226;10.400;2023-05-08T06:25:31;102096.09;;;11.32;56.96
51313;BME280;37397;53.226;10.400;2023-05-08T06:27:58;102097.72;;;11.34;56.93
51313;BME280;37397;53.226;10.400;2023-05-08T06:30:24;102083.88;;;11.32;56.85
51313;BME280;37397;53.226;10.400;2023-05-08T06:32:51;102087.06;;;11.34;57.03
51313;BME280;37397;53.226;10.400;2023-05-08T06:35:18;102082.16;;;11.35;57.00
51313;BME280;37397;53.226;10.400;2023-05-08T06:37:45;102081.22;;;11.38;56.99
51313;BME280;37397;53.226;10.400;2023-05-08T06:40:12;102081.47;;;11.43;57.14
51313;BME280;37397;53.226;10.400;2023-05-08T06:42:39;102093.25;;;11.45;57.08
51313;BME280;37397;53.226;10.400;2023-05-08T06:45:07;102082.59;;;11.46;57.20
51313;BME280;37397;53.226;10.400;2023-05-08T06:47:34;102093.13;;;11.49;57.15
51313;BME280;37397;53.226;10.400;2023-05-08T06:50:00;102090.59;;;11.51;57.27
51313;BME280;37397;53.226;10.400;2023-05-08T06:52:27;102092.22;;;11.52;57.22
51313;BME280;37397;53.226;10.400;2023-05-08T06:54:53;102085.59;;;11.55;57.33
51313;BME280;37397;53.226;10.400;2023-05-08T06:57:20;102088.00;;;11.57;57.22
51313;BME280;37397;53.226;10.400;2023-05-08T06:59:46;102095.31;;;11.58;57.32
51313;BME280;37397;53.226;10.400;2023-05-08T07:02:13;102095.19;;;11.61;57.25
51313;BME280;37397;53.226;10.400;2023-05-08T07:04:42;102091.09;;;11.62;57.52
51313;BME280;37397;53.226;10.400;2023-05-08T07:07:09;102093.38;;;11.67;57.40
51313;BME280;37397;53.226;10.400;2023-05-08T07:09:37;102087.66;;;11.67;57.39
51313;BME280;37397;53.226;10.400;2023-05-08T07:12:03;102096.91;;;11.72;57.52
51313;BME280;37397;53.226;10.400;2023-05-08T07:14:30;102091.53;;;11.74;57.30
51313;BME280;37397;53.226;10.400;2023-05-08T07:16:56;102092.22;;;11.78;57.40
51313;BME280;37397;53.226;10.400;2023-05-08T07:19:23;102083.97;;;11.80;57.45
51313;BME280;37397;53.226;10.400;2023-05-08T07:21:50;102090.50;;;11.80;57.37
51313;BME280;37397;53.226;10.400;2023-05-08T07:24:16;102083.41;;;11.85;57.58
51313;BME280;37397;53.226;10.400;2023-05-08T07:26:43;102080.56;;;11.85;57.40
51313;BME280;37397;53.226;10.400;2023-05-08T07:29:10;102088.53;;;11.90;57.50
51313;BME280;37397;53.226;10.400;2023-05-08T07:31:38;102083.19;;;11.92;57.55
51313;BME280;37397;53.226;10.400;2023-05-08T07:34:04;102081.94;;;11.93;57.53
51313;BME280;37397;53.226;10.400;2023-05-08T07:36:32;102086.28;;;11.98;57.45
51313;BME280;37397;53.226;10.400;2023-05-08T07:38:59;102090.59;;;12.02;57.36
51313;BME280;37397;53.226;10.400;2023-05-08T07:41:25;102094.59;;;12.05;57.42
51313;BME280;37397;53.226;10.400;2023-05-08T07:43:52;102097.81;;;12.07;57.51
51313;BME280;37397;53.226;10.400;2023-05-08T07:46:19;102093.22;;;12.10;57.59
51313;BME280;37397;53.226;10.400;2023-05-08T07:48:45;102081.78;;;12.10;57.44
51313;BME280;37397;53.226;10.400;2023-05-08T07:51:12;102083.72;;;12.13;57.58
51313;BME280;37397;53.226;10.400;2023-05-08T07:53:39;102080.41;;;12.14;57.46
51313;BME280;37397;53.226;10.400;2023-05-08T07:56:06;102088.41;;;12.19;57.37
51313;BME280;37397;53.226;10.400;2023-05-08T07:58:32;102084.16;;;12.24;57.52
51313;BME280;37397;53.226;10.400;2023-05-08T08:00:59;102088.13;;;12.27;57.36
51313;BME280;37397;53.226;10.400;2023-05-08T08:03:25;102081.94;;;12.28;57.40
51313;BME280;37397;53.226;10.400;2023-05-08T08:05:52;102073.38;;;12.28;57.42
51313;BME280;37397;53.226;10.400;2023-05-08T08:08:18;102082.97;;;12.34;57.59
51313;BME280;37397;53.226;10.400;2023-05-08T08:10:45;102069.00;;;12.36;57.75
51313;BME280;37397;53.226;10.400;2023-05-08T08:13:12;102073.78;;;12.39;57.62
51313;BME280;37397;53.226;10.400;2023-05-08T08:15:38;102072.53;;;12.40;57.71
51313;BME280;37397;53.226;10.400;2023-05-08T08:18:05;102074.78;;;12.46;57.63
51313;BME280;37397;53.226;10.400;2023-05-08T08:20:32;102066.06;;;12.49;57.53
51313;BME280;37397;53.226;10.400;2023-05-08T08:22:59;102066.88;;;12.50;57.63
51313;BME280;37397;53.226;10.400;2023-05-08T08:25:25;102069.16;;;12.55;57.68
51313;BME280;37397;53.226;10.400;2023-05-08T08:27:55;102072.69;;;12.59;57.65
51313;BME280;37397;53.226;10.400;2023-05-08T08:30:22;102066.00;;;12.62;57.71
51313;BME280;37397;53.226;10.400;2023-05-08T08:32:48;102069.22;;;12.64;58.06
51313;BME280;37397;53.226;10.400;2023-05-08T08:35:15;102064.16;;;12.68;57.82
51313;BME280;37397;53.226;10.400;2023-05-08T08:37:42;102074.22;;;12.73;57.82
51313;BME280;37397;53.226;10.400;2023-05-08T08:40:09;102070.88;;;12.74;57.74
51313;BME280;37397;53.226;10.400;2023-05-08T08:42:35;102087.00;;;12.81;57.88
51313;BME280;37397;53.226;10.400;2023-05-08T08:45:02;102078.28;;;12.85;57.72
51313;BME280;37397;53.226;10.400;2023-05-08T08:47:33;102079.72;;;12.89;57.67
51313;BME280;37397;53.226;10.400;2023-05-08T08:50:03;102072.75;;;12.90;57.44
51313;BME280;37397;53.226;10.400;2023-05-08T08:52:59;102071.03;;;12.93;57.28
51313;BME280;37397;53.226;10.400;2023-05-08T08:55:26;102066.88;;;12.94;57.57
51313;BME280;37397;53.226;10.400;2023-05-08T09:00:45;102058.34;;;13.03;57.41
51313;BME280;37397;53.226;10.400;2023-05-08T09:03:13;102065.06;;;13.09;57.48
51313;BME280;37397;53.226;10.400;2023-05-08T09:05:40;102059.19;;;13.13;57.40
51313;BME280;37397;53.226;10.400;2023-05-08T09:08:07;102054.59;;;13.16;57.32
51313;BME280;37397;53.226;10.400;2023-05-08T09:10:33;102067.53;;;13.20;57.10
51313;BME280;37397;53.226;10.400;2023-05-08T09:13:04;102063.69;;;13.23;57.19
51313;BME280;37397;53.226;10.400;2023-05-08T09:15:31;102054.97;;;13.27;57.10
51313;BME280;37397;53.226;10.400;2023-05-08T09:18:00;102055.63;;;13.31;57.07
51313;BME280;37397;53.226;10.400;2023-05-08T09:20:28;102057.88;;;13.36;57.13
51313;BME280;37397;53.226;10.400;2023-05-08T09:22:54;102051.22;;;13.39;57.01
51313;BME280;37397;53.226;10.400;2023-05-08T09:25:22;102045.84;;;13.41;57.02
51313;BME280;37397;53.226;10.400;2023-05-08T09:27:48;102051.88;;;13.43;57.19
51313;BME280;37397;53.226;10.400;2023-05-08T09:30:14;102057.31;;;13.50;56.95
51313;BME280;37397;53.226;10.400;2023-05-08T09:32:43;102050.31;;;13.52;56.82
51313;BME280;37397;53.226;10.400;2023-05-08T09:35:11;102044.78;;;13.57;56.89
51313;BME280;37397;53.226;10.400;2023-05-08T09:37:41;102045.41;;;13.61;56.70
51313;BME280;37397;53.226;10.400;2023-05-08T09:40:18;102051.00;;;13.65;56.79
51313;BME280;37397;53.226;10.400;2023-05-08T09:42:47;102048.47;;;13.67;56.78
51313;BME280;37397;53.226;10.400;2023-05-08T09:45:31;102046.72;;;13.70;56.65
51313;BME280;37397;53.226;10.400;2023-05-08T09:47:58;102039.56;;;13.74;56.55
51313;BME280;37397;53.226;10.400;2023-05-08T09:50:24;102043.88;;;13.79;56.48
51313;BME280;37397;53.226;10.400;2023-05-08T09:52:51;102047.72;;;13.85;56.45
51313;BME280;37397;53.226;10.400;2023-05-08T09:55:18;102040.22;;;13.88;56.35
51313;BME280;37397;53.226;10.400;2023-05-08T09:57:58;102037.69;;;13.90;56.30
51313;BME280;37397;53.226;10.400;2023-05-08T10:00:27;102036.56;;;13.96;56.58
51313;BME280;37397;53.226;10.400;2023-05-08T10:02:58;102035.63;;;13.99;55.95
51313;BME280;37397;53.226;10.400;2023-05-08T10:05:27;102033.72;;;14.06;56.11
51313;BME280;37397;53.226;10.400;2023-05-08T10:08:23;102043.13;;;14.06;56.03
51313;BME280;37397;53.226;10.400;2023-05-08T10:11:12;102041.69;;;14.11;55.87
51313;BME280;37397;53.226;10.400;2023-05-08T10:13:38;102037.41;;;14.15;55.77
51313;BME280;37397;53.226;10.400;2023-05-08T10:16:05;102037.72;;;14.17;55.91
51313;BME280;37397;53.226;10.400;2023-05-08T10:18:34;102037.88;;;14.23;55.64
51313;BME280;37397;53.226;10.400;2023-05-08T10:21:05;102035.16;;;14.29;55.73
51313;BME280;37397;53.226;10.400;2023-05-08T10:23:33;102030.03;;;14.33;55.44
51313;BME280;37397;53.226;10.400;2023-05-08T10:26:47;102033.25;;;14.35;55.28
51313;BME280;37397;53.226;10.400;2023-05-08T10:28:55;102026.88;;;14.40;55.21
51313;BME280;37397;53.226;10.400;2023-05-08T10:31:33;102026.09;;;14.39;55.02
51313;BME280;37397;53.226;10.400;2023-05-08T10:34:01;102031.97;;;14.45;54.91
51313;BME280;37397;53.226;10.400;2023-05-08T10:36:29;102035.00;;;14.51;54.75
51313;BME280;37397;53.226;10.400;2023-05-08T10:38:57;102024.63;;;14.53;54.53
51313;BME280;37397;53.226;10.400;2023-05-08T10:41:25;102030.72;;;14.55;54.56
51313;BME280;37397;53.226;10.400;2023-05-08T10:43:52;102023.19;;;14.58;54.33
51313;BME280;37397;53.226;10.400;2023-05-08T10:46:29;102016.16;;;14.59;53.90
51313;BME280;37397;53.226;10.400;2023-05-08T10:49:11;102013.16;;;14.63;53.77
51313;BME280;37397;53.226;10.400;2023-05-08T10:52:00;102011.53;;;14.62;53.92
51313;BME280;37397;53.226;10.400;2023-05-08T10:54:57;102017.94;;;14.66;53.78
51313;BME280;37397;53.226;10.400;2023-05-08T10:57:31;102016.97;;;14.69;53.87
51313;BME280;37397;53.226;10.400;2023-05-08T10:59:57;102009.78;;;14.73;53.38
51313;BME280;37397;53.226;10.400;2023-05-08T11:02:29;102010.88;;;14.76;52.93
51313;BME280;37397;53.226;10.400;2023-05-08T11:05:16;102004.66;;;14.77;52.42
51313;BME280;37397;53.226;10.400;2023-05-08T11:07:53;102001.31;;;14.79;52.59
51313;BME280;37397;53.226;10.400;2023-05-08T11:10:20;102004.81;;;14.83;52.78
51313;BME280;37397;53.226;10.400;2023-05-08T11:12:50;102005.44;;;14.87;52.74
51313;BME280;37397;53.226;10.400;2023-05-08T11:15:34;102008.31;;;14.87;52.29
51313;BME280;37397;53.226;10.400;2023-05-08T11:18:04;101998.53;;;14.94;52.47
51313;BME280;37397;53.226;10.400;2023-05-08T11:20:41;102000.94;;;14.95;52.21
51313;BME280;37397;53.226;10.400;2023-05-08T11:23:24;101999.97;;;14.99;52.11
51313;BME280;37397;53.226;10.400;2023-05-08T11:26:01;102006.66;;;15.05;52.16
51313;BME280;37397;53.226;10.400;2023-05-08T11:28:39;102002.03;;;15.07;51.63
51313;BME280;37397;53.226;10.400;2023-05-08T11:31:07;101994.34;;;15.13;52.12
51313;BME280;37397;53.226;10.400;2023-05-08T11:33:35;101993.38;;;15.17;51.99
51313;BME280;37397;53.226;10.400;2023-05-08T11:38:34;101986.00;;;15.25;52.00
51313;BME280;37397;53.226;10.400;2023-05-08T11:41:06;101985.31;;;15.30;51.69
51313;BME280;37397;53.226;10.400;2023-05-08T11:46:12;101979.53;;;15.39;51.98
51313;BME280;37397;53.226;10.400;2023-05-08T11:48:39;101972.81;;;15.42;51.76
51313;BME280;37397;53.226;10.400;2023-05-08T11:51:06;101970.53;;;15.46;51.83
51313;BME280;37397;53.226;10.400;2023-05-08T11:53:34;101984.25;;;15.52;51.76
51313;BME280;37397;53.226;10.400;2023-05-08T11:56:02;101982.78;;;15.56;51.76
51313;BME280;37397;53.226;10.400;2023-05-08T11:58:28;101982.09;;;15.61;51.38
51313;BME280;37397;53.226;10.400;2023-05-08T12:00:56;101976.47;;;15.67;51.39
51313;BME280;37397;53.226;10.400;2023-05-08T12:03:23;101971.81;;;15.69;51.41
51313;BME280;37397;53.226;10.400;2023-05-08T12:05:54;101970.84;;;15.73;51.48
51313;BME280;37397;53.226;10.400;2023-05-08T12:08:21;101962.19;;;15.73;51.44
51313;BME280;37397;53.226;10.400;2023-05-08T12:10:49;101979.94;;;15.80;51.41
51313;BME280;37397;53.226;10.400;2023-05-08T12:13:21;101973.97;;;15.84;51.10
51313;BME280;37397;53.226;10.400;2023-05-08T12:15:52;101970.63;;;15.85;50.58
51313;BME280;37397;53.226;10.400;2023-05-08T12:18:20;101970.44;;;15.89;50.13
51313;BME280;37397;53.226;10.400;2023-05-08T12:20:51;101971.03;;;15.93;50.12
51313;BME280;37397;53.226;10.400;2023-05-08T12:23:18;101973.13;;;15.93;49.85
51313;BME280;37397;53.226;10.400;2023-05-08T12:25:45;101977.09;;;15.95;49.53
51313;BME280;37397;53.226;10.400;2023-05-08T12:28:12;101980.31;;;15.97;50.12
51313;BME280;37397;53.226;10.400;2023-05-08T12:30:38;101965.59;;;15.95;50.08
51313;BME280;37397;53.226;10.400;2023-05-08T12:33:05;101974.53;;;15.97;50.00
51313;BME280;37397;53.226;10.400;2023-05-08T12:35:32;101964.59;;;15.98;50.04
51313;BME280;37397;53.226;10.400;2023-05-08T12:38:03;101962.53;;;15.99;49.99
51313;BME280;37397;53.226;10.400;2023-05-08T12:40:33;101968.09;;;16.02;49.86
51313;BME280;37397;53.226;10.400;2023-05-08T12:43:01;101959.47;;;16.02;50.35
51313;BME280;37397;53.226;10.400;2023-05-08T12:45:31;101958.47;;;16.06;49.92
51313;BME280;37397;53.226;10.400;2023-05-08T12:48:01;101958.28;;;16.09;49.83
51313;BME280;37397;53.226;10.400;2023-05-08T12:50:28;101957.78;;;16.11;49.90
51313;BME280;37397;53.226;10.400;2023-05-08T12:53:02;101959.97;;;16.16;49.65
51313;BME280;37397;53.226;10.400;2023-05-08T12:55:31;101957.41;;;16.18;49.72
51313;BME280;37397;53.226;10.400;2023-05-08T12:58:03;101959.63;;;16.23;49.44
51313;BME280;37397;53.226;10.400;2023-05-08T13:03:08;101957.13;;;16.31;49.62
51313;BME280;37397;53.226;10.400;2023-05-08T13:05:36;101958.53;;;16.35;49.82
51313;BME280;37397;53.226;10.400;2023-05-08T13:08:07;101954.34;;;16.36;49.39
51313;BME280;37397;53.226;10.400;2023-05-08T13:10:43;101964.69;;;16.43;49.21
51313;BME280;37397;53.226;10.400;2023-05-08T13:13:14;101951.41;;;16.46;49.68
51313;BME280;37397;53.226;10.400;2023-05-08T13:15:41;101959.34;;;16.51;49.89
51313;BME280;37397;53.226;10.400;2023-05-08T13:18:08;101946.53;;;16.52;49.22